Terminal Aerodrome Forecast
Issued by NWS

Home | Current Version | Previous Version | Text Only | Print | Product List | Glossary On
Versions: 1 2 3 4 5 6 7 8 9 10 11 12
000
FTUS42 TJSJ 270500
TAFJBQ
TAF
TJBQ 270520Z 2706/2806 10011KT P6SM VCSH SCT070
     FM271430 08017G24KT P6SM VCSH FEW025 BKN050
     FM272300 10011KT P6SM FEW030
      AMD NOT SKED TIL 271100=

USA.gov is the U.S. government's official web portal to all federal, state and local government web resources and services.